sensor_id;sensor_type;location;lat;lon;timestamp;temperature;humidity
18073;DHT22;9161;47.348;9.648;2023-12-14T00:03:05;5.80;99.90
18073;DHT22;9161;47.348;9.648;2023-12-14T00:08:07;5.70;99.90
18073;DHT22;9161;47.348;9.648;2023-12-14T00:13:11;5.70;99.90
18073;DHT22;9161;47.348;9.648;2023-12-14T00:18:13;5.70;99.90
18073;DHT22;9161;47.348;9.648;2023-12-14T00:23:15;5.70;99.90
18073;DHT22;9161;47.348;9.648;2023-12-14T00:28:18;5.70;99.90
18073;DHT22;9161;47.348;9.648;2023-12-14T00:33:20;5.60;99.90
18073;DHT22;9161;47.348;9.648;2023-12-14T00:38:23;5.70;99.90
18073;DHT22;9161;47.348;9.648;2023-12-14T00:43:27;5.60;99.90
18073;DHT22;9161;47.348;9.648;2023-12-14T00:48:29;5.60;99.90
18073;DHT22;9161;47.348;9.648;2023-12-14T00:53:31;5.70;99.90
18073;DHT22;9161;47.348;9.648;2023-12-14T00:58:34;5.60;99.90
18073;DHT22;9161;47.348;9.648;2023-12-14T01:03:37;5.60;99.90
18073;DHT22;9161;47.348;9.648;2023-12-14T01:08:39;5.70;99.90
18073;DHT22;9161;47.348;9.648;2023-12-14T01:13:42;5.60;99.90
18073;DHT22;9161;47.348;9.648;2023-12-14T01:18:44;5.60;99.90
18073;DHT22;9161;47.348;9.648;2023-12-14T01:23:47;5.60;99.90
18073;DHT22;9161;47.348;9.648;2023-12-14T01:28:51;5.60;99.90
18073;DHT22;9161;47.348;9.648;2023-12-14T01:33:53;5.50;99.90
18073;DHT22;9161;47.348;9.648;2023-12-14T01:38:55;5.60;99.90
18073;DHT22;9161;47.348;9.648;2023-12-14T01:43:58;5.50;99.90
18073;DHT22;9161;47.348;9.648;2023-12-14T01:49:01;5.60;99.90
18073;DHT22;9161;47.348;9.648;2023-12-14T01:54:03;5.60;99.90
18073;DHT22;9161;47.348;9.648;2023-12-14T01:59:06;5.60;99.90
18073;DHT22;9161;47.348;9.648;2023-12-14T02:04:09;5.60;99.90
18073;DHT22;9161;47.348;9.648;2023-12-14T02:09:12;5.60;99.90
18073;DHT22;9161;47.348;9.648;2023-12-14T02:14:15;5.60;99.90
18073;DHT22;9161;47.348;9.648;2023-12-14T02:19:17;5.60;99.90
18073;DHT22;9161;47.348;9.648;2023-12-14T02:24:21;5.60;99.90
18073;DHT22;9161;47.348;9.648;2023-12-14T02:29:23;5.60;99.90
18073;DHT22;9161;47.348;9.648;2023-12-14T02:34:25;5.60;99.90
18073;DHT22;9161;47.348;9.648;2023-12-14T02:39:29;5.50;99.90
18073;DHT22;9161;47.348;9.648;2023-12-14T02:44:31;5.50;99.90
18073;DHT22;9161;47.348;9.648;2023-12-14T02:49:33;5.50;99.90
18073;DHT22;9161;47.348;9.648;2023-12-14T02:54:39;5.50;99.90
18073;DHT22;9161;47.348;9.648;2023-12-14T02:59:41;5.60;99.90
18073;DHT22;9161;47.348;9.648;2023-12-14T03:04:44;5.50;99.90
18073;DHT22;9161;47.348;9.648;2023-12-14T03:09:47;5.50;99.90
18073;DHT22;9161;47.348;9.648;2023-12-14T03:14:49;5.50;99.90
18073;DHT22;9161;47.348;9.648;2023-12-14T03:19:51;5.50;99.90
18073;DHT22;9161;47.348;9.648;2023-12-14T03:24:55;5.60;99.90
18073;DHT22;9161;47.348;9.648;2023-12-14T03:29:57;5.50;99.90
18073;DHT22;9161;47.348;9.648;2023-12-14T03:34:59;5.50;99.90
18073;DHT22;9161;47.348;9.648;2023-12-14T03:40:03;5.50;99.90
18073;DHT22;9161;47.348;9.648;2023-12-14T03:45:06;5.50;99.90
18073;DHT22;9161;47.348;9.648;2023-12-14T03:50:11;5.50;99.90
18073;DHT22;9161;47.348;9.648;2023-12-14T03:55:15;5.60;99.90
18073;DHT22;9161;47.348;9.648;2023-12-14T04:00:17;5.50;99.90
18073;DHT22;9161;47.348;9.648;2023-12-14T04:05:19;5.40;99.90
18073;DHT22;9161;47.348;9.648;2023-12-14T04:10:23;5.40;99.90
18073;DHT22;9161;47.348;9.648;2023-12-14T04:15:25;5.40;99.90
18073;DHT22;9161;47.348;9.648;2023-12-14T04:20:27;5.40;99.90
18073;DHT22;9161;47.348;9.648;2023-12-14T04:25:30;5.40;99.90
18073;DHT22;9161;47.348;9.648;2023-12-14T04:30:32;5.30;99.90
18073;DHT22;9161;47.348;9.648;2023-12-14T04:35:34;5.30;99.90
18073;DHT22;9161;47.348;9.648;2023-12-14T04:40:38;5.30;99.90
18073;DHT22;9161;47.348;9.648;2023-12-14T04:45:43;5.20;99.90
18073;DHT22;9161;47.348;9.648;2023-12-14T04:50:45;5.20;99.90
18073;DHT22;9161;47.348;9.648;2023-12-14T04:55:48;5.10;99.90
18073;DHT22;9161;47.348;9.648;2023-12-14T05:00:50;4.90;99.90
18073;DHT22;9161;47.348;9.648;2023-12-14T05:05:52;4.80;99.90
18073;DHT22;9161;47.348;9.648;2023-12-14T05:10:55;4.80;99.90
18073;DHT22;9161;47.348;9.648;2023-12-14T05:15:58;4.70;99.90
18073;DHT22;9161;47.348;9.648;2023-12-14T05:21:01;4.80;99.90
18073;DHT22;9161;47.348;9.648;2023-12-14T05:26:05;4.80;99.90
18073;DHT22;9161;47.348;9.648;2023-12-14T05:31:07;4.70;99.90
18073;DHT22;9161;47.348;9.648;2023-12-14T05:36:09;4.70;99.90
18073;DHT22;9161;47.348;9.648;2023-12-14T05:41:13;4.80;99.90
18073;DHT22;9161;47.348;9.648;2023-12-14T05:46:22;4.90;99.90
18073;DHT22;9161;47.348;9.648;2023-12-14T05:51:28;4.90;99.90
18073;DHT22;9161;47.348;9.648;2023-12-14T05:56:32;4.90;99.90
18073;DHT22;9161;47.348;9.648;2023-12-14T06:01:38;4.90;99.90
18073;DHT22;9161;47.348;9.648;2023-12-14T06:06:41;4.90;99.90
18073;DHT22;9161;47.348;9.648;2023-12-14T06:11:44;4.90;99.90
18073;DHT22;9161;47.348;9.648;2023-12-14T06:16:46;4.80;99.90
18073;DHT22;9161;47.348;9.648;2023-12-14T06:21:48;4.80;99.90
18073;DHT22;9161;47.348;9.648;2023-12-14T06:26:52;4.90;99.90
18073;DHT22;9161;47.348;9.648;2023-12-14T06:31:54;4.90;99.90
18073;DHT22;9161;47.348;9.648;2023-12-14T06:36:56;4.90;99.90
18073;DHT22;9161;47.348;9.648;2023-12-14T06:42:01;4.90;99.90
18073;DHT22;9161;47.348;9.648;2023-12-14T06:47:04;4.90;99.90
18073;DHT22;9161;47.348;9.648;2023-12-14T06:52:07;4.90;99.90
18073;DHT22;9161;47.348;9.648;2023-12-14T06:57:12;4.90;99.90
18073;DHT22;9161;47.348;9.648;2023-12-14T07:02:15;4.80;99.90
18073;DHT22;9161;47.348;9.648;2023-12-14T07:07:18;4.90;99.90
18073;DHT22;9161;47.348;9.648;2023-12-14T07:12:21;4.80;99.90
18073;DHT22;9161;47.348;9.648;2023-12-14T07:17:24;4.80;99.90
18073;DHT22;9161;47.348;9.648;2023-12-14T07:22:26;4.80;99.90
18073;DHT22;9161;47.348;9.648;2023-12-14T07:27:30;4.80;99.90
18073;DHT22;9161;47.348;9.648;2023-12-14T07:32:32;4.80;99.90
18073;DHT22;9161;47.348;9.648;2023-12-14T07:37:34;4.80;99.90
18073;DHT22;9161;47.348;9.648;2023-12-14T07:42:38;4.80;99.90
18073;DHT22;9161;47.348;9.648;2023-12-14T07:47:40;4.90;99.90
18073;DHT22;9161;47.348;9.648;2023-12-14T07:52:43;4.90;99.90
18073;DHT22;9161;47.348;9.648;2023-12-14T07:57:47;4.90;99.90
18073;DHT22;9161;47.348;9.648;2023-12-14T08:02:49;5.00;99.90
18073;DHT22;9161;47.348;9.648;2023-12-14T08:07:51;5.00;99.90
18073;DHT22;9161;47.348;9.648;2023-12-14T08:12:56;5.00;99.90
18073;DHT22;9161;47.348;9.648;2023-12-14T08:17:58;5.10;99.90
18073;DHT22;9161;47.348;9.648;2023-12-14T08:23:00;5.00;99.90
18073;DHT22;9161;47.348;9.648;2023-12-14T08:28:04;5.00;99.90
18073;DHT22;9161;47.348;9.648;2023-12-14T08:33:07;4.90;99.90
18073;DHT22;9161;47.348;9.648;2023-12-14T08:38:10;4.90;99.90
18073;DHT22;9161;47.348;9.648;2023-12-14T08:43:14;5.00;99.90
18073;DHT22;9161;47.348;9.648;2023-12-14T08:48:16;5.00;99.90
18073;DHT22;9161;47.348;9.648;2023-12-14T08:53:18;5.00;99.90
18073;DHT22;9161;47.348;9.648;2023-12-14T08:58:21;5.00;99.90
18073;DHT22;9161;47.348;9.648;2023-12-14T09:03:24;5.10;99.90
18073;DHT22;9161;47.348;9.648;2023-12-14T09:08:27;5.10;99.90
18073;DHT22;9161;47.348;9.648;2023-12-14T09:13:30;5.10;99.90
18073;DHT22;9161;47.348;9.648;2023-12-14T09:18:33;5.20;99.90
18073;DHT22;9161;47.348;9.648;2023-12-14T09:23:36;5.30;99.90
18073;DHT22;9161;47.348;9.648;2023-12-14T09:28:39;5.40;99.90
18073;DHT22;9161;47.348;9.648;2023-12-14T09:33:43;5.50;99.90
18073;DHT22;9161;47.348;9.648;2023-12-14T09:38:45;5.60;99.90
18073;DHT22;9161;47.348;9.648;2023-12-14T09:43:50;5.70;99.90
18073;DHT22;9161;47.348;9.648;2023-12-14T09:48:54;5.60;99.90
18073;DHT22;9161;47.348;9.648;2023-12-14T09:53:57;5.50;99.90
18073;DHT22;9161;47.348;9.648;2023-12-14T09:59:01;5.60;99.90
18073;DHT22;9161;47.348;9.648;2023-12-14T10:04:08;5.60;99.90
18073;DHT22;9161;47.348;9.648;2023-12-14T10:09:10;5.60;99.90
18073;DHT22;9161;47.348;9.648;2023-12-14T10:14:19;5.70;99.90
18073;DHT22;9161;47.348;9.648;2023-12-14T10:19:22;5.60;99.90
18073;DHT22;9161;47.348;9.648;2023-12-14T10:24:24;5.70;99.90
18073;DHT22;9161;47.348;9.648;2023-12-14T10:29:28;5.60;99.90
18073;DHT22;9161;47.348;9.648;2023-12-14T10:34:30;5.60;99.90
18073;DHT22;9161;47.348;9.648;2023-12-14T10:39:33;5.60;99.90
18073;DHT22;9161;47.348;9.648;2023-12-14T10:44:37;5.70;99.90
18073;DHT22;9161;47.348;9.648;2023-12-14T10:50:00;5.70;99.90
18073;DHT22;9161;47.348;9.648;2023-12-14T10:55:07;5.60;99.90
18073;DHT22;9161;47.348;9.648;2023-12-14T11:00:11;5.70;99.90
18073;DHT22;9161;47.348;9.648;2023-12-14T11:05:14;5.70;99.90
18073;DHT22;9161;47.348;9.648;2023-12-14T11:10:22;5.80;99.90
18073;DHT22;9161;47.348;9.648;2023-12-14T11:15:27;6.00;99.90
18073;DHT22;9161;47.348;9.648;2023-12-14T11:20:29;6.10;99.90
18073;DHT22;9161;47.348;9.648;2023-12-14T11:25:32;5.90;99.90
18073;DHT22;9161;47.348;9.648;2023-12-14T11:30:47;5.90;99.90
18073;DHT22;9161;47.348;9.648;2023-12-14T11:35:55;6.20;99.90
18073;DHT22;9161;47.348;9.648;2023-12-14T11:40:58;6.30;99.90
18073;DHT22;9161;47.348;9.648;2023-12-14T11:46:02;6.40;99.90
18073;DHT22;9161;47.348;9.648;2023-12-14T11:51:05;6.40;99.90
18073;DHT22;9161;47.348;9.648;2023-12-14T11:56:09;6.50;99.90
18073;DHT22;9161;47.348;9.648;2023-12-14T12:01:14;6.50;99.90
18073;DHT22;9161;47.348;9.648;2023-12-14T12:06:21;6.50;99.90
18073;DHT22;9161;47.348;9.648;2023-12-14T12:11:25;6.50;99.90
18073;DHT22;9161;47.348;9.648;2023-12-14T12:16:33;6.50;99.90
18073;DHT22;9161;47.348;9.648;2023-12-14T12:21:35;6.70;99.90
18073;DHT22;9161;47.348;9.648;2023-12-14T12:26:37;6.80;99.90
18073;DHT22;9161;47.348;9.648;2023-12-14T12:31:41;6.90;99.90
18073;DHT22;9161;47.348;9.648;2023-12-14T12:36:43;6.60;99.90
18073;DHT22;9161;47.348;9.648;2023-12-14T12:41:45;6.50;99.90
18073;DHT22;9161;47.348;9.648;2023-12-14T12:46:49;6.40;99.90
18073;DHT22;9161;47.348;9.648;2023-12-14T12:52:07;6.50;99.90
18073;DHT22;9161;47.348;9.648;2023-12-14T12:57:10;6.70;99.90
18073;DHT22;9161;47.348;9.648;2023-12-14T13:02:13;6.70;99.90
18073;DHT22;9161;47.348;9.648;2023-12-14T13:07:15;6.50;99.90
18073;DHT22;9161;47.348;9.648;2023-12-14T13:12:19;6.50;99.90
18073;DHT22;9161;47.348;9.648;2023-12-14T13:17:22;6.50;99.90
18073;DHT22;9161;47.348;9.648;2023-12-14T13:22:25;6.60;99.90
18073;DHT22;9161;47.348;9.648;2023-12-14T13:27:30;6.70;99.90
18073;DHT22;9161;47.348;9.648;2023-12-14T13:32:34;6.80;99.90
18073;DHT22;9161;47.348;9.648;2023-12-14T13:37:37;6.90;99.90
18073;DHT22;9161;47.348;9.648;2023-12-14T13:42:40;7.00;99.90
18073;DHT22;9161;47.348;9.648;2023-12-14T13:48:00;7.00;99.90
18073;DHT22;9161;47.348;9.648;2023-12-14T13:53:03;6.90;99.90
18073;DHT22;9161;47.348;9.648;2023-12-14T13:58:05;6.80;99.90
18073;DHT22;9161;47.348;9.648;2023-12-14T14:03:09;6.70;99.90
18073;DHT22;9161;47.348;9.648;2023-12-14T14:08:11;6.70;99.90
18073;DHT22;9161;47.348;9.648;2023-12-14T14:13:18;6.70;99.90
18073;DHT22;9161;47.348;9.648;2023-12-14T14:18:23;6.70;99.90
18073;DHT22;9161;47.348;9.648;2023-12-14T14:23:27;6.70;99.90
18073;DHT22;9161;47.348;9.648;2023-12-14T14:28:32;6.60;99.90
18073;DHT22;9161;47.348;9.648;2023-12-14T14:33:35;6.50;99.90
18073;DHT22;9161;47.348;9.648;2023-12-14T14:38:37;6.50;99.90
18073;DHT22;9161;47.348;9.648;2023-12-14T14:43:40;6.50;99.90
18073;DHT22;9161;47.348;9.648;2023-12-14T14:48:45;6.40;99.90
18073;DHT22;9161;47.348;9.648;2023-12-14T14:53:48;6.40;99.90
18073;DHT22;9161;47.348;9.648;2023-12-14T14:58:50;6.40;99.90
18073;DHT22;9161;47.348;9.648;2023-12-14T15:03:53;6.30;99.90
18073;DHT22;9161;47.348;9.648;2023-12-14T15:08:56;6.30;99.90
18073;DHT22;9161;47.348;9.648;2023-12-14T15:13:58;6.30;99.90
18073;DHT22;9161;47.348;9.648;2023-12-14T15:19:01;6.50;99.90
18073;DHT22;9161;47.348;9.648;2023-12-14T15:24:04;7.10;99.90
18073;DHT22;9161;47.348;9.648;2023-12-14T15:29:07;6.70;99.90
18073;DHT22;9161;47.348;9.648;2023-12-14T15:34:11;6.50;99.90
18073;DHT22;9161;47.348;9.648;2023-12-14T15:39:13;6.40;99.90
18073;DHT22;9161;47.348;9.648;2023-12-14T15:44:15;6.30;99.90
18073;DHT22;9161;47.348;9.648;2023-12-14T15:49:19;6.30;99.90
18073;DHT22;9161;47.348;9.648;2023-12-14T15:54:22;6.20;99.90
18073;DHT22;9161;47.348;9.648;2023-12-14T15:59:24;6.10;99.90
18073;DHT22;9161;47.348;9.648;2023-12-14T16:04:28;6.20;99.90
18073;DHT22;9161;47.348;9.648;2023-12-14T16:09:30;6.10;99.90
18073;DHT22;9161;47.348;9.648;2023-12-14T16:14:34;6.10;99.90
18073;DHT22;9161;47.348;9.648;2023-12-14T16:19:43;6.00;99.90
18073;DHT22;9161;47.348;9.648;2023-12-14T16:24:48;6.00;99.90
18073;DHT22;9161;47.348;9.648;2023-12-14T16:29:50;6.00;99.90
18073;DHT22;9161;47.348;9.648;2023-12-14T16:34:54;6.20;99.90
18073;DHT22;9161;47.348;9.648;2023-12-14T16:39:57;6.00;99.90
18073;DHT22;9161;47.348;9.648;2023-12-14T16:44:59;6.00;99.90
18073;DHT22;9161;47.348;9.648;2023-12-14T16:50:04;6.00;99.90
18073;DHT22;9161;47.348;9.648;2023-12-14T16:55:08;6.00;99.90
18073;DHT22;9161;47.348;9.648;2023-12-14T17:00:12;6.00;99.90
18073;DHT22;9161;47.348;9.648;2023-12-14T17:05:16;6.00;99.90
18073;DHT22;9161;47.348;9.648;2023-12-14T17:10:18;6.00;99.90
18073;DHT22;9161;47.348;9.648;2023-12-14T17:15:21;6.00;99.90
18073;DHT22;9161;47.348;9.648;2023-12-14T17:20:25;6.10;99.90
18073;DHT22;9161;47.348;9.648;2023-12-14T17:25:28;6.10;99.90
18073;DHT22;9161;47.348;9.648;2023-12-14T17:30:30;6.00;99.90
18073;DHT22;9161;47.348;9.648;2023-12-14T17:35:35;6.00;99.90
18073;DHT22;9161;47.348;9.648;2023-12-14T17:40:39;5.90;99.90
18073;DHT22;9161;47.348;9.648;2023-12-14T17:45:41;5.90;99.90
18073;DHT22;9161;47.348;9.648;2023-12-14T17:50:48;5.90;99.90
18073;DHT22;9161;47.348;9.648;2023-12-14T17:55:51;6.00;99.90
18073;DHT22;9161;47.348;9.648;2023-12-14T18:00:54;5.90;99.90
18073;DHT22;9161;47.348;9.648;2023-12-14T18:05:58;5.90;99.90
18073;DHT22;9161;47.348;9.648;2023-12-14T18:11:02;5.80;99.90
18073;DHT22;9161;47.348;9.648;2023-12-14T18:16:06;5.80;99.90
18073;DHT22;9161;47.348;9.648;2023-12-14T18:21:13;5.80;99.90
18073;DHT22;9161;47.348;9.648;2023-12-14T18:26:16;5.80;99.90
18073;DHT22;9161;47.348;9.648;2023-12-14T18:31:20;5.80;99.90
18073;DHT22;9161;47.348;9.648;2023-12-14T18:36:25;5.90;99.90
18073;DHT22;9161;47.348;9.648;2023-12-14T18:41:30;5.90;99.90
18073;DHT22;9161;47.348;9.648;2023-12-14T18:46:35;5.90;99.90
18073;DHT22;9161;47.348;9.648;2023-12-14T18:51:43;5.90;99.90
18073;DHT22;9161;47.348;9.648;2023-12-14T18:56:48;5.90;99.90
18073;DHT22;9161;47.348;9.648;2023-12-14T19:02:01;5.90;99.90
18073;DHT22;9161;47.348;9.648;2023-12-14T19:07:11;5.90;99.90
18073;DHT22;9161;47.348;9.648;2023-12-14T19:12:17;5.90;99.90
18073;DHT22;9161;47.348;9.648;2023-12-14T19:17:22;5.90;99.90
18073;DHT22;9161;47.348;9.648;2023-12-14T19:22:32;5.80;99.90
18073;DHT22;9161;47.348;9.648;2023-12-14T19:27:37;5.90;99.90
18073;DHT22;9161;47.348;9.648;2023-12-14T19:32:43;5.80;99.90
18073;DHT22;9161;47.348;9.648;2023-12-14T19:37:50;5.80;99.90
18073;DHT22;9161;47.348;9.648;2023-12-14T19:42:55;5.80;99.90
18073;DHT22;9161;47.348;9.648;2023-12-14T19:48:01;5.80;99.90
18073;DHT22;9161;47.348;9.648;2023-12-14T19:53:08;5.80;99.90
18073;DHT22;9161;47.348;9.648;2023-12-14T19:58:13;5.80;99.90
18073;DHT22;9161;47.348;9.648;2023-12-14T20:03:19;5.70;99.90
18073;DHT22;9161;47.348;9.648;2023-12-14T20:08:29;5.70;99.90
18073;DHT22;9161;47.348;9.648;2023-12-14T20:13:34;5.70;99.90
18073;DHT22;9161;47.348;9.648;2023-12-14T20:18:40;5.70;99.90
18073;DHT22;9161;47.348;9.648;2023-12-14T20:23:47;5.70;99.90
18073;DHT22;9161;47.348;9.648;2023-12-14T20:28:53;5.70;99.90
18073;DHT22;9161;47.348;9.648;2023-12-14T20:33:59;5.70;99.90
18073;DHT22;9161;47.348;9.648;2023-12-14T20:39:06;5.70;99.90
18073;DHT22;9161;47.348;9.648;2023-12-14T20:44:09;5.70;99.90
18073;DHT22;9161;47.348;9.648;2023-12-14T20:49:13;5.70;99.90
18073;DHT22;9161;47.348;9.648;2023-12-14T20:54:18;6.10;99.90
18073;DHT22;9161;47.348;9.648;2023-12-14T20:59:23;5.80;99.90
18073;DHT22;9161;47.348;9.648;2023-12-14T21:04:28;5.80;99.90
18073;DHT22;9161;47.348;9.648;2023-12-14T21:09:33;5.70;99.90
18073;DHT22;9161;47.348;9.648;2023-12-14T21:14:36;5.70;99.90
18073;DHT22;9161;47.348;9.648;2023-12-14T21:19:45;5.60;99.90
18073;DHT22;9161;47.348;9.648;2023-12-14T21:24:52;5.70;99.90
18073;DHT22;9161;47.348;9.648;2023-12-14T21:30:02;5.60;99.90
18073;DHT22;9161;47.348;9.648;2023-12-14T21:35:07;5.60;99.90
18073;DHT22;9161;47.348;9.648;2023-12-14T21:40:11;5.60;99.90
18073;DHT22;9161;47.348;9.648;2023-12-14T21:45:15;5.50;99.90
18073;DHT22;9161;47.348;9.648;2023-12-14T21:50:17;5.50;99.90
18073;DHT22;9161;47.348;9.648;2023-12-14T21:55:21;5.50;99.90
18073;DHT22;9161;47.348;9.648;2023-12-14T22:00:24;5.50;99.90
18073;DHT22;9161;47.348;9.648;2023-12-14T22:05:27;5.50;99.90
18073;DHT22;9161;47.348;9.648;2023-12-14T22:10:34;5.40;99.90
18073;DHT22;9161;47.348;9.648;2023-12-14T22:15:36;5.50;99.90
18073;DHT22;9161;47.348;9.648;2023-12-14T22:20:40;5.50;99.90
18073;DHT22;9161;47.348;9.648;2023-12-14T22:25:44;5.50;99.90
18073;DHT22;9161;47.348;9.648;2023-12-14T22:30:48;5.50;99.90
18073;DHT22;9161;47.348;9.648;2023-12-14T22:35:54;5.40;99.90
18073;DHT22;9161;47.348;9.648;2023-12-14T22:40:58;5.40;99.90
18073;DHT22;9161;47.348;9.648;2023-12-14T22:46:01;5.50;99.90
18073;DHT22;9161;47.348;9.648;2023-12-14T22:51:04;5.50;99.90
18073;DHT22;9161;47.348;9.648;2023-12-14T22:56:08;5.60;99.90
18073;DHT22;9161;47.348;9.648;2023-12-14T23:01:11;5.50;99.90
18073;DHT22;9161;47.348;9.648;2023-12-14T23:06:14;5.50;99.90
18073;DHT22;9161;47.348;9.648;2023-12-14T23:11:18;5.50;99.90
18073;DHT22;9161;47.348;9.648;2023-12-14T23:16:21;5.50;99.90
18073;DHT22;9161;47.348;9.648;2023-12-14T23:21:26;5.50;99.90
18073;DHT22;9161;47.348;9.648;2023-12-14T23:26:30;5.50;99.90
18073;DHT22;9161;47.348;9.648;2023-12-14T23:31:33;5.50;99.90
18073;DHT22;9161;47.348;9.648;2023-12-14T23:36:35;5.50;99.90
18073;DHT22;9161;47.348;9.648;2023-12-14T23:41:39;5.50;99.90
18073;DHT22;9161;47.348;9.648;2023-12-14T23:46:41;5.50;99.90
18073;DHT22;9161;47.348;9.648;2023-12-14T23:51:43;5.50;99.90
18073;DHT22;9161;47.348;9.648;2023-12-14T23:56:47;5.50;99.90
